Crescent City, California
Current Conditions -  °F | °C
As of 9:56 PM on Wednesday 22 Oct 2014 (Local Time) from KCEC Reporting Station
Overcast Overcast  
Wind Chill: 62°   Ceiling: 2600
Heat Index: 62°   Visibility: 10mi
Dew Point: 57°   Wind: 23mph
Humidity: 84%   Direction: 170°S
Pressure: 29.86"   Gusts: 31mph
Location:  41.74°N, 124.16°W
Report Text: KCEC 230456Z AUTO 17020G27KT 10SM BKN026 BKN060 OVC070 17/14 A2986 RMK AO2 PK WND 16040/0407 SLP113 T01670139
Loading
Personal Weather Stations






























Interactive Weather Map New forecast layout! Learn more

10-Day Weather Forecast

Advertisements
Track Severe Weather on mobile